Time;durP1;ratioP1;P1;durP2;ratioP2;P2;SDS_P1;SDS_P2;PMS_P1;PMS_P2;Temp;Humidity;BMP_temperature;BMP_pressure;BME280_temperature;BME280_humidity;BME280_pressure;Samples;Min_cycle;Max_cycle;Signal;HPM_P1;HPM_P2
2023/08/09 00:01:43;;;;;;;5.70;1.90;;;;;;;;;;106921;1275;25298;-76
2023/08/09 00:04:30;;;;;;;4.90;1.90;;;;;;;;;;107181;1274;24358;-79
2023/08/09 00:07:00;;;;;;;5.80;1.70;;;;;;;;;;107141;1274;22517;-83
2023/08/09 00:09:32;;;;;;;4.30;1.80;;;;;;;;;;107165;1274;22778;-81
2023/08/09 00:12:08;;;;;;;5.10;1.70;;;;;;;;;;107153;1274;25320;-80
2023/08/09 00:14:35;;;;;;;6.00;1.70;;;;;;;;;;107153;1273;25213;-75
2023/08/09 00:17:02;;;;;;;5.20;1.70;;;;;;;;;;107118;1256;22524;-83
2023/08/09 00:19:30;;;;;;;4.60;1.80;;;;;;;;;;106939;1274;25284;-80
2023/08/09 00:21:57;;;;;;;4.80;2.00;;;;;;;;;;106898;1274;22637;-80
2023/08/09 00:24:26;;;;;;;5.70;2.20;;;;;;;;;;106906;1274;25265;-79
2023/08/09 00:26:53;;;;;;;5.30;2.00;;;;;;;;;;107176;1256;23113;-75
2023/08/09 00:29:20;;;;;;;5.20;1.80;;;;;;;;;;107062;1274;22549;-81
2023/08/09 00:31:46;;;;;;;5.50;1.80;;;;;;;;;;107019;1274;22481;-77
2023/08/09 00:34:13;;;;;;;5.20;1.70;;;;;;;;;;107104;1274;24670;-78
2023/08/09 00:36:51;;;;;;;4.10;1.70;;;;;;;;;;106912;1266;24190;-83
2023/08/09 00:39:21;;;;;;;4.40;1.70;;;;;;;;;;106939;1275;22517;-82
2023/08/09 00:41:47;;;;;;;3.90;1.70;;;;;;;;;;106953;1275;22533;-76
2023/08/09 00:44:17;;;;;;;5.40;2.00;;;;;;;;;;107106;1275;22534;-77
2023/08/09 00:46:47;;;;;;;4.00;1.70;;;;;;;;;;106912;1257;24361;-79
2023/08/09 00:49:17;;;;;;;5.50;1.80;;;;;;;;;;106915;1267;25220;-78
2023/08/09 00:52:24;;;;;;;5.80;1.90;;;;;;;;;;106946;1275;25223;-76
2023/08/09 00:54:55;;;;;;;6.70;1.90;;;;;;;;;;107108;1275;25249;-78
2023/08/09 00:57:45;;;;;;;4.70;1.70;;;;;;;;;;106854;1260;22536;-83
2023/08/09 01:00:14;;;;;;;4.70;1.80;;;;;;;;;;107025;1276;22746;-82
2023/08/09 01:02:44;;;;;;;4.40;1.80;;;;;;;;;;104278;1276;3537728;-80
2023/08/09 01:05:21;;;;;;;5.50;1.80;;;;;;;;;;106971;1276;24196;-81
2023/08/09 01:07:52;;;;;;;4.70;1.60;;;;;;;;;;107025;1257;22547;-79
2023/08/09 01:10:25;;;;;;;5.00;1.40;;;;;;;;;;106865;1275;22593;-83
2023/08/09 01:12:56;;;;;;;4.70;1.50;;;;;;;;;;107166;1275;22521;-75
2023/08/09 01:16:05;;;;;;;7.00;1.60;;;;;;;;;;106841;1275;25358;-77
2023/08/09 01:18:34;;;;;;;6.30;1.90;;;;;;;;;;106892;1275;22530;-83
2023/08/09 01:21:32;;;;;;;;;;;;;;;;;;;;;
2023/08/09 01:24:19;;;;;;;4.00;1.50;;;;;;;;;;107082;1275;25321;-81
2023/08/09 01:26:46;;;;;;;4.50;1.60;;;;;;;;;;107127;1275;22546;-80
2023/08/09 01:29:16;;;;;;;5.10;1.70;;;;;;;;;;106874;1258;22517;-78
2023/08/09 01:31:43;;;;;;;4.90;1.80;;;;;;;;;;107138;1275;24186;-76
2023/08/09 01:34:31;;;;;;;4.10;1.80;;;;;;;;;;107139;1275;22527;-83
2023/08/09 01:37:13;;;;;;;4.80;1.70;;;;;;;;;;107100;1275;22660;-76
2023/08/09 01:39:41;;;;;;;6.00;1.90;;;;;;;;;;106944;1260;24525;-80
2023/08/09 01:42:10;;;;;;;5.30;1.80;;;;;;;;;;106908;1275;23269;-76
2023/08/09 01:44:37;;;;;;;4.80;1.80;;;;;;;;;;107101;1275;23136;-81
2023/08/09 01:47:05;;;;;;;5.40;1.70;;;;;;;;;;106938;1275;22653;-76
2023/08/09 01:49:52;;;;;;;5.40;1.70;;;;;;;;;;106987;1257;25278;-80
2023/08/09 01:52:19;;;;;;;6.40;1.80;;;;;;;;;;107126;1275;22659;-80
2023/08/09 01:54:49;;;;;;;5.40;1.70;;;;;;;;;;106906;1275;22531;-78
2023/08/09 01:57:16;;;;;;;6.60;2.10;;;;;;;;;;107100;1265;23892;-79
2023/08/09 01:59:44;;;;;;;6.00;2.30;;;;;;;;;;106918;1275;24363;-79
2023/08/09 02:02:11;;;;;;;7.20;2.60;;;;;;;;;;107012;1275;22770;-83
2023/08/09 02:04:38;;;;;;;6.40;2.40;;;;;;;;;;106950;1275;23207;-80
2023/08/09 02:07:05;;;;;;;5.90;2.20;;;;;;;;;;107038;1275;24350;-77
2023/08/09 02:09:35;;;;;;;6.40;2.10;;;;;;;;;;106889;1257;23128;-78
2023/08/09 02:12:02;;;;;;;7.60;2.40;;;;;;;;;;106915;1275;22639;-77
2023/08/09 02:14:33;;;;;;;5.80;2.20;;;;;;;;;;107109;1275;25239;-80
2023/08/09 02:17:09;;;;;;;5.90;2.40;;;;;;;;;;106890;1275;24343;-77
2023/08/09 02:19:36;;;;;;;5.20;2.40;;;;;;;;;;107104;1275;22563;-78
2023/08/09 02:22:05;;;;;;;6.80;2.30;;;;;;;;;;107136;1275;22490;-76
2023/08/09 02:24:33;;;;;;;6.30;2.10;;;;;;;;;;106906;1275;25220;-77
2023/08/09 02:27:01;;;;;;;4.70;2.00;;;;;;;;;;107113;1275;24204;-82
2023/08/09 02:29:28;;;;;;;7.50;2.10;;;;;;;;;;107047;1256;24392;-82
2023/08/09 02:31:56;;;;;;;6.20;2.30;;;;;;;;;;106925;1275;22611;-80
2023/08/09 02:34:23;;;;;;;5.70;2.20;;;;;;;;;;106939;1275;24241;-79
2023/08/09 02:36:50;;;;;;;5.70;2.20;;;;;;;;;;107099;1275;22534;-79
2023/08/09 02:39:17;;;;;;;5.40;1.50;;;;;;;;;;106918;1259;22532;-80
2023/08/09 02:41:44;;;;;;;5.30;1.70;;;;;;;;;;106883;1275;25472;-78
2023/08/09 02:44:11;;;;;;;5.60;2.00;;;;;;;;;;107083;1275;22519;-81
2023/08/09 02:47:02;;;;;;;7.80;2.30;;;;;;;;;;106893;1275;22730;-80
2023/08/09 02:49:29;;;;;;;5.70;1.90;;;;;;;;;;107083;1257;25224;-83
2023/08/09 02:51:56;;;;;;;6.50;1.90;;;;;;;;;;106898;1275;22527;-78
2023/08/09 02:54:23;;;;;;;5.50;1.80;;;;;;;;;;107130;1275;22595;-76
2023/08/09 02:56:52;;;;;;;3.50;1.60;;;;;;;;;;107107;1275;24320;-82
2023/08/09 02:59:19;;;;;;;5.40;1.70;;;;;;;;;;106909;1258;22520;-82
2023/08/09 03:01:46;;;;;;;5.60;2.00;;;;;;;;;;106902;1275;22523;-78
2023/08/09 03:04:13;;;;;;;5.50;2.20;;;;;;;;;;106831;1275;25350;-76
2023/08/09 03:06:40;;;;;;;5.30;1.90;;;;;;;;;;107129;1275;25268;-79
2023/08/09 03:09:22;;;;;;;6.90;2.10;;;;;;;;;;107086;1275;24185;-76
2023/08/09 03:11:52;;;;;;;7.20;2.10;;;;;;;;;;106890;1275;22786;-81
2023/08/09 03:14:19;;;;;;;5.30;1.90;;;;;;;;;;106953;1275;22531;-82
2023/08/09 03:16:56;;;;;;;8.30;2.20;;;;;;;;;;107146;1275;22517;-78
2023/08/09 03:19:26;;;;;;;5.20;1.90;;;;;;;;;;107114;1253;22537;-76
2023/08/09 03:21:53;;;;;;;6.70;2.10;;;;;;;;;;106843;1275;22583;-82
2023/08/09 03:24:24;;;;;;;5.40;1.90;;;;;;;;;;106856;1275;22541;-80
2023/08/09 03:26:51;;;;;;;6.20;2.30;;;;;;;;;;107110;1270;22523;-76
2023/08/09 03:29:20;;;;;;;7.00;2.10;;;;;;;;;;106917;1275;24291;-76
2023/08/09 03:31:47;;;;;;;5.80;2.10;;;;;;;;;;106871;1259;25873;-80
2023/08/09 03:34:35;;;;;;;7.50;1.90;;;;;;;;;;106884;1275;25775;-78
2023/08/09 03:37:04;;;;;;;7.10;2.30;;;;;;;;;;107170;1274;24507;-77
2023/08/09 03:39:32;;;;;;;5.40;1.90;;;;;;;;;;107025;1274;24234;-76
2023/08/09 03:41:59;;;;;;;6.90;2.50;;;;;;;;;;107125;1257;22573;-83
2023/08/09 03:44:39;;;;;;;8.10;2.60;;;;;;;;;;107177;1274;22551;-82
2023/08/09 03:47:09;;;;;;;6.10;2.40;;;;;;;;;;107133;1274;24240;-76
2023/08/09 03:49:36;;;;;;;5.50;2.20;;;;;;;;;;107008;1274;25462;-78
2023/08/09 03:52:06;;;;;;;6.80;2.30;;;;;;;;;;106896;1256;25339;-77
2023/08/09 03:54:33;;;;;;;6.30;2.10;;;;;;;;;;106908;1274;25220;-77
2023/08/09 03:57:01;;;;;;;4.80;2.10;;;;;;;;;;107001;1274;24284;-82
2023/08/09 03:59:28;;;;;;;7.60;2.60;;;;;;;;;;107142;1274;22543;-77
2023/08/09 04:02:08;;;;;;;5.80;2.20;;;;;;;;;;107152;1256;22531;-80
2023/08/09 04:04:35;;;;;;;7.10;2.50;;;;;;;;;;107188;1274;25281;-79
2023/08/09 04:07:05;;;;;;;5.50;2.40;;;;;;;;;;107217;1274;22567;-82
2023/08/09 04:09:33;;;;;;;5.60;2.20;;;;;;;;;;107153;1274;25321;-76
2023/08/09 04:12:03;;;;;;;6.60;2.70;;;;;;;;;;107153;1256;24250;-77
2023/08/09 04:14:31;;;;;;;7.10;2.30;;;;;;;;;;107219;1274;24218;-82
2023/08/09 04:17:18;;;;;;;7.10;2.70;;;;;;;;;;106984;1274;22779;-81
2023/08/09 04:19:48;;;;;;;6.20;2.10;;;;;;;;;;107176;1274;22527;-80
2023/08/09 04:22:18;;;;;;;6.80;2.60;;;;;;;;;;107019;1274;24269;-80
2023/08/09 04:25:06;;;;;;;5.40;2.30;;;;;;;;;;106935;1274;25699;-80
2023/08/09 04:27:53;;;;;;;5.20;2.20;;;;;;;;;;107178;1251;24186;-78
2023/08/09 04:30:22;;;;;;;7.00;2.00;;;;;;;;;;107158;1274;22520;-76
2023/08/09 04:32:49;;;;;;;5.60;2.00;;;;;;;;;;107163;1257;22653;-77
2023/08/09 04:35:19;;;;;;;5.50;1.70;;;;;;;;;;107178;1266;22533;-79
2023/08/09 04:38:16;;;;;;;;;;;;;;;;;;;;;
2023/08/09 04:40:54;;;;;;;10.40;3.40;;;;;;;;;;107157;1251;23029;-80
2023/08/09 04:43:23;;;;;;;7.40;2.90;;;;;;;;;;106989;1274;25404;-77
2023/08/09 04:45:50;;;;;;;7.30;3.40;;;;;;;;;;106951;1274;22603;-83
2023/08/09 04:48:17;;;;;;;9.40;4.00;;;;;;;;;;106935;1274;23293;-81
2023/08/09 04:50:45;;;;;;;13.20;3.90;;;;;;;;;;107015;1274;24065;-77
2023/08/09 04:53:23;;;;;;;10.70;3.90;;;;;;;;;;106953;1257;23115;-77
2023/08/09 04:55:50;;;;;;;9.90;3.20;;;;;;;;;;107157;1274;22533;-78
2023/08/09 04:58:17;;;;;;;10.20;3.60;;;;;;;;;;106974;1274;22537;-80
2023/08/09 05:00:46;;;;;;;10.40;3.60;;;;;;;;;;107009;1274;22517;-77
2023/08/09 05:03:13;;;;;;;8.30;3.20;;;;;;;;;;106948;1256;23856;-79
2023/08/09 05:05:53;;;;;;;;;;;;;;;;;;;;;
2023/08/09 05:08:48;;;;;;;11.30;3.50;;;;;;;;;;106986;1274;22513;-79
2023/08/09 05:11:14;;;;;;;6.30;2.60;;;;;;;;;;106957;1274;22523;-77
2023/08/09 05:13:41;;;;;;;6.90;2.90;;;;;;;;;;107172;1274;24189;-83
2023/08/09 05:16:11;;;;;;;9.50;2.80;;;;;;;;;;106965;1274;24673;-83
2023/08/09 05:18:40;;;;;;;8.80;3.10;;;;;;;;;;107227;1274;24320;-77
2023/08/09 05:21:07;;;;;;;7.70;2.80;;;;;;;;;;107113;1274;25321;-77
2023/08/09 05:23:37;;;;;;;7.90;3.30;;;;;;;;;;107141;1256;22659;-82
2023/08/09 05:26:04;;;;;;;8.70;3.40;;;;;;;;;;106944;1274;22627;-83
2023/08/09 05:28:52;;;;;;;11.00;3.80;;;;;;;;;;106918;1274;23857;-80
2023/08/09 05:31:21;;;;;;;8.50;3.40;;;;;;;;;;107197;1274;22563;-79
2023/08/09 05:33:48;;;;;;;10.40;4.10;;;;;;;;;;107123;1256;22646;-80
2023/08/09 05:36:15;;;;;;;9.40;3.80;;;;;;;;;;107071;1274;23423;-77
2023/08/09 05:38:42;;;;;;;13.80;4.50;;;;;;;;;;106930;1274;23060;-79
2023/08/09 05:41:09;;;;;;;14.60;4.70;;;;;;;;;;106978;1274;22966;-80
2023/08/09 05:43:46;;;;;;;14.60;4.90;;;;;;;;;;106968;1256;24188;-77
2023/08/09 05:46:13;;;;;;;20.10;5.30;;;;;;;;;;107161;1274;22511;-83
2023/08/09 05:48:42;;;;;;;22.10;6.80;;;;;;;;;;106907;1274;22514;-83
2023/08/09 05:51:12;;;;;;;20.60;6.40;;;;;;;;;;107180;1274;22764;-80
2023/08/09 05:53:42;;;;;;;25.70;7.10;;;;;;;;;;107170;1255;23304;-80
2023/08/09 05:56:08;;;;;;;17.70;6.10;;;;;;;;;;107120;1274;22541;-77
2023/08/09 05:58:35;;;;;;;28.40;5.90;;;;;;;;;;107124;1274;24340;-77
2023/08/09 06:01:05;;;;;;;14.40;5.10;;;;;;;;;;107174;1274;25220;-80
2023/08/09 06:03:34;;;;;;;15.50;4.90;;;;;;;;;;107136;1266;25262;-79
2023/08/09 06:06:22;;;;;;;15.20;5.50;;;;;;;;;;106953;1274;22530;-83
2023/08/09 06:08:55;;;;;;;12.30;5.40;;;;;;;;;;106994;1274;24203;-76
2023/08/09 06:11:22;;;;;;;10.90;3.80;;;;;;;;;;107121;1274;22526;-82
2023/08/09 06:13:51;;;;;;;10.20;4.50;;;;;;;;;;106937;1257;25211;-81
2023/08/09 06:16:18;;;;;;;9.30;3.80;;;;;;;;;;106987;1274;22640;-80
2023/08/09 06:18:45;;;;;;;9.90;3.50;;;;;;;;;;107172;1274;24266;-82
2023/08/09 06:21:12;;;;;;;9.20;3.10;;;;;;;;;;106964;1274;24209;-78
2023/08/09 06:23:38;;;;;;;10.60;3.10;;;;;;;;;;107147;1274;22590;-80
2023/08/09 06:26:08;;;;;;;13.40;3.30;;;;;;;;;;106983;1274;25275;-78
2023/08/09 06:28:35;;;;;;;9.90;2.80;;;;;;;;;;107035;1274;24200;-79
2023/08/09 06:31:02;;;;;;;12.00;3.10;;;;;;;;;;106983;1274;22572;-82
2023/08/09 06:33:37;;;;;;;9.70;2.40;;;;;;;;;;106967;1254;24246;-81
2023/08/09 06:36:10;;;;;;;6.90;2.50;;;;;;;;;;106947;1275;22527;-80
2023/08/09 06:48:18;;;;;;;6.90;2.50;;;;;;;;;;103869;1301;544792;-76
2023/08/09 06:50:45;;;;;;;7.70;2.40;;;;;;;;;;106853;1277;22527;-80
2023/08/09 06:53:13;;;;;;;7.20;2.50;;;;;;;;;;106877;1277;25224;-81
2023/08/09 06:55:40;;;;;;;7.10;2.10;;;;;;;;;;106925;1276;24231;-77
2023/08/09 06:58:06;;;;;;;6.80;2.20;;;;;;;;;;106815;1266;25380;-81
2023/08/09 07:00:37;;;;;;;6.30;2.00;;;;;;;;;;106802;1279;24344;-83
2023/08/09 07:03:04;;;;;;;6.20;2.10;;;;;;;;;;104422;1277;3430717;-80
2023/08/09 07:05:32;;;;;;;6.70;2.40;;;;;;;;;;106878;1276;23250;-83
2023/08/09 07:07:59;;;;;;;8.60;2.60;;;;;;;;;;106984;1275;22511;-85
2023/08/09 07:10:26;;;;;;;8.10;2.70;;;;;;;;;;107008;1275;23420;-84
2023/08/09 07:12:53;;;;;;;6.60;2.50;;;;;;;;;;106936;1275;25265;-81
2023/08/09 07:15:20;;;;;;;7.40;2.50;;;;;;;;;;106931;1275;24333;-78
2023/08/09 07:17:47;;;;;;;8.20;2.40;;;;;;;;;;107021;1254;22521;-82
2023/08/09 07:20:14;;;;;;;9.50;2.90;;;;;;;;;;106936;1276;24222;-81
2023/08/09 07:22:41;;;;;;;9.50;2.90;;;;;;;;;;106924;1276;25301;-81
2023/08/09 07:25:09;;;;;;;9.60;3.00;;;;;;;;;;106918;1276;22528;-79
2023/08/09 07:27:40;;;;;;;10.60;3.20;;;;;;;;;;106921;1276;22602;-77
2023/08/09 07:30:09;;;;;;;16.50;3.30;;;;;;;;;;107195;1256;22524;-78
2023/08/09 07:32:38;;;;;;;12.10;3.40;;;;;;;;;;107094;1272;22578;-79
2023/08/09 07:35:09;;;;;;;13.30;3.30;;;;;;;;;;107142;1276;22581;-78
2023/08/09 07:37:36;;;;;;;14.50;3.10;;;;;;;;;;106902;1275;22573;-84
2023/08/09 07:40:04;;;;;;;7.00;2.70;;;;;;;;;;106910;1276;25278;-82
2023/08/09 07:42:31;;;;;;;10.20;3.00;;;;;;;;;;107163;1277;24320;-82
2023/08/09 07:44:58;;;;;;;14.80;3.90;;;;;;;;;;106912;1275;25608;-82
2023/08/09 07:47:25;;;;;;;12.70;3.50;;;;;;;;;;106851;1277;22502;-83
2023/08/09 07:49:52;;;;;;;10.30;2.70;;;;;;;;;;107056;1257;24340;-81
2023/08/09 07:52:19;;;;;;;8.60;3.10;;;;;;;;;;106947;1276;24209;-82
2023/08/09 07:54:48;;;;;;;9.60;3.10;;;;;;;;;;106929;1276;24523;-79
2023/08/09 07:57:15;;;;;;;10.40;3.40;;;;;;;;;;107000;1276;25287;-82
2023/08/09 07:59:42;;;;;;;17.50;4.20;;;;;;;;;;106992;1268;23229;-78
2023/08/09 08:02:09;;;;;;;14.60;4.50;;;;;;;;;;106936;1277;25274;-79
2023/08/09 08:04:36;;;;;;;12.10;3.60;;;;;;;;;;106900;1278;25388;-80
2023/08/09 08:07:03;;;;;;;11.10;3.50;;;;;;;;;;106905;1277;22575;-80
2023/08/09 08:09:32;;;;;;;14.00;3.40;;;;;;;;;;107012;1257;26494;-80
2023/08/09 08:12:02;;;;;;;8.10;3.00;;;;;;;;;;106873;1276;22808;-78
2023/08/09 08:14:28;;;;;;;9.10;2.80;;;;;;;;;;106988;1267;25356;-79
2023/08/09 08:16:56;;;;;;;7.60;2.80;;;;;;;;;;107077;1267;22858;-82
2023/08/09 08:19:23;;;;;;;7.00;2.60;;;;;;;;;;106872;1270;25369;-79
2023/08/09 08:21:50;;;;;;;9.60;3.00;;;;;;;;;;106761;1278;22583;-79
2023/08/09 08:24:17;;;;;;;10.70;3.20;;;;;;;;;;106912;1278;25224;-78
2023/08/09 08:26:44;;;;;;;7.20;2.40;;;;;;;;;;106857;1278;22528;-84
2023/08/09 08:58:45;;;;;;;9.00;3.10;;;;;;;;;;103547;1313;548162;-87
2023/08/09 09:01:15;;;;;;;9.80;3.80;;;;;;;;;;105882;1292;24099;-85
2023/08/09 09:03:41;;;;;;;10.40;4.10;;;;;;;;;;105821;1293;22612;-83
2023/08/09 09:06:07;;;;;;;8.90;3.40;;;;;;;;;;105861;1293;22620;-89
2023/08/09 09:08:44;;;;;;;8.50;2.90;;;;;;;;;;105840;1274;22677;-84
2023/08/09 09:11:19;;;;;;;8.90;3.00;;;;;;;;;;103279;1290;3462709;-89
2023/08/09 09:13:50;;;;;;;5.50;2.40;;;;;;;;;;105966;1290;23280;-85
2023/08/09 09:16:17;;;;;;;5.80;2.70;;;;;;;;;;106025;1290;22488;-88
2023/08/09 09:18:45;;;;;;;7.80;2.80;;;;;;;;;;106078;1271;25369;-85
2023/08/09 09:21:11;;;;;;;7.30;2.90;;;;;;;;;;106192;1291;24347;-81
2023/08/09 09:23:38;;;;;;;9.60;3.60;;;;;;;;;;105911;1290;22710;-83
2023/08/09 09:26:08;;;;;;;7.70;3.10;;;;;;;;;;105836;1290;25380;-82
2023/08/09 09:28:41;;;;;;;7.30;2.90;;;;;;;;;;105809;1272;22546;-86
2023/08/09 09:31:08;;;;;;;6.00;2.50;;;;;;;;;;105946;1290;22539;-84
2023/08/09 09:33:35;;;;;;;6.70;2.40;;;;;;;;;;106022;1290;22543;-84
2023/08/09 09:36:04;;;;;;;6.70;2.70;;;;;;;;;;105895;1290;22594;-82
2023/08/09 09:38:33;;;;;;;9.00;2.80;;;;;;;;;;105776;1290;22569;-83
2023/08/09 09:41:09;;;;;;;10.40;3.20;;;;;;;;;;105913;1290;24341;-82
2023/08/09 09:43:47;;;;;;;8.40;2.60;;;;;;;;;;106014;1290;25352;-85
2023/08/09 09:46:20;;;;;;;6.50;2.60;;;;;;;;;;105886;1290;22634;-88
2023/08/09 09:48:48;;;;;;;8.80;2.70;;;;;;;;;;105952;1274;22672;-82
2023/08/09 09:51:18;;;;;;;7.60;2.80;;;;;;;;;;106345;1276;25495;-86
2023/08/09 09:53:46;;;;;;;5.90;2.50;;;;;;;;;;106106;1286;22553;-83
2023/08/09 09:56:14;;;;;;;6.70;2.70;;;;;;;;;;106168;1287;24054;-82
2023/08/09 09:58:41;;;;;;;7.90;3.20;;;;;;;;;;106206;1287;22539;-84
2023/08/09 10:01:12;;;;;;;8.00;3.00;;;;;;;;;;106379;1283;22539;-81
2023/08/09 10:03:42;;;;;;;9.50;2.80;;;;;;;;;;106087;1280;25267;-82
2023/08/09 10:06:17;;;;;;;7.90;3.00;;;;;;;;;;106231;1286;22511;-84
2023/08/09 10:08:47;;;;;;;5.90;2.50;;;;;;;;;;106498;1262;23919;-81
2023/08/09 10:11:14;;;;;;;8.60;2.80;;;;;;;;;;106201;1286;25364;-82
2023/08/09 10:14:05;;;;;;;9.30;2.90;;;;;;;;;;106541;1286;22618;-85
2023/08/09 10:16:33;;;;;;;8.40;2.80;;;;;;;;;;106235;1286;22997;-88
2023/08/09 10:19:04;;;;;;;8.70;3.00;;;;;;;;;;106243;1263;24247;-81
2023/08/09 10:21:32;;;;;;;8.10;2.90;;;;;;;;;;106312;1286;22555;-81
2023/08/09 10:24:08;;;;;;;5.80;2.30;;;;;;;;;;106649;1283;22559;-82
2023/08/09 10:26:39;;;;;;;7.30;2.40;;;;;;;;;;106663;1277;22583;-83
2023/08/09 10:29:07;;;;;;;6.00;2.20;;;;;;;;;;106539;1262;24199;-80
2023/08/09 10:31:48;;;;;;;5.70;2.20;;;;;;;;;;106549;1284;24698;-83
2023/08/09 10:34:15;;;;;;;6.50;2.30;;;;;;;;;;106475;1284;22536;-87
2023/08/09 10:36:47;;;;;;;6.30;2.20;;;;;;;;;;106332;1284;22584;-83
2023/08/09 10:39:14;;;;;;;4.80;1.90;;;;;;;;;;106542;1260;22533;-81
2023/08/09 10:42:01;;;;;;;7.60;1.90;;;;;;;;;;106553;1284;22878;-80
2023/08/09 10:44:36;;;;;;;8.20;2.30;;;;;;;;;;106681;1284;22567;-81
2023/08/09 10:47:09;;;;;;;5.40;1.80;;;;;;;;;;106719;1284;25371;-80
2023/08/09 10:49:45;;;;;;;5.50;1.80;;;;;;;;;;106893;1275;22555;-82
2023/08/09 10:52:13;;;;;;;3.40;1.60;;;;;;;;;;106706;1278;25359;-81
2023/08/09 10:54:49;;;;;;;4.30;1.90;;;;;;;;;;106604;1283;24400;-82
2023/08/09 10:57:18;;;;;;;5.30;1.60;;;;;;;;;;106659;1283;23898;-82
2023/08/09 10:59:55;;;;;;;5.00;1.70;;;;;;;;;;106482;1259;22550;-83
2023/08/09 11:02:21;;;;;;;5.10;1.90;;;;;;;;;;106655;1283;22689;-83
2023/08/09 11:04:47;;;;;;;4.00;1.70;;;;;;;;;;106539;1283;22786;-84
2023/08/09 11:07:20;;;;;;;4.40;1.70;;;;;;;;;;106503;1283;23130;-87
2023/08/09 11:09:47;;;;;;;4.10;1.60;;;;;;;;;;106463;1259;24209;-85
2023/08/09 11:12:16;;;;;;;3.70;1.40;;;;;;;;;;106410;1284;22654;-84
2023/08/09 11:14:44;;;;;;;3.70;1.30;;;;;;;;;;106255;1276;24340;-77
2023/08/09 11:17:12;;;;;;;3.70;1.40;;;;;;;;;;106169;1277;24349;-80
2023/08/09 11:19:38;;;;;;;4.40;1.50;;;;;;;;;;106351;1278;22536;-77
2023/08/09 11:22:05;;;;;;;4.40;1.70;;;;;;;;;;106096;1272;22562;-77
2023/08/09 11:24:34;;;;;;;4.00;1.60;;;;;;;;;;106150;1277;22543;-78
2023/08/09 11:27:05;;;;;;;5.80;1.90;;;;;;;;;;106078;1281;22533;-82
2023/08/09 11:29:33;;;;;;;7.60;4.60;;;;;;;;;;106047;1282;24224;-81
2023/08/09 11:31:59;;;;;;;8.00;5.60;;;;;;;;;;106066;1267;24211;-77
2023/08/09 11:37:16;;;;;;;3.70;1.90;;;;;;;;;;103684;1292;544983;-77
2023/08/09 11:39:44;;;;;;;3.60;1.90;;;;;;;;;;106061;1296;278657;-75
2023/08/09 11:47:15;;;;;;;3.60;1.30;;;;;;;;;;103610;1292;545000;-75
2023/08/09 11:51:14;;;;;;;3.80;1.30;;;;;;;;;;103753;1289;545048;-73
2023/08/09 11:54:36;;;;;;;4.40;1.70;;;;;;;;;;103741;1292;544909;-73
2023/08/09 11:58:13;;;;;;;3.50;1.40;;;;;;;;;;103721;1289;545585;-77
2023/08/09 12:01:55;;;;;;;3.30;1.40;;;;;;;;;;103726;1289;544982;-73
2023/08/09 12:05:28;;;;;;;3.50;1.40;;;;;;;;;;103749;1291;544877;-76
2023/08/09 12:09:36;;;;;;;3.50;1.40;;;;;;;;;;103439;1297;545565;-75
2023/08/09 12:12:42;;;;;;;2.10;0.80;;;;;;;;;;103861;1289;545020;-76
2023/08/09 12:16:19;;;;;;;2.90;1.30;;;;;;;;;;103775;1292;544933;-76
2023/08/09 12:19:56;;;;;;;4.30;1.80;;;;;;;;;;103777;1291;545756;-78
2023/08/09 12:23:35;;;;;;;3.90;1.60;;;;;;;;;;103762;1291;544841;-77
2023/08/09 12:27:14;;;;;;;4.70;1.50;;;;;;;;;;103858;1292;544799;-75
2023/08/09 12:30:52;;;;;;;3.70;1.40;;;;;;;;;;103842;1292;545415;-76
2023/08/09 12:34:30;;;;;;;4.30;1.40;;;;;;;;;;104572;1283;545909;-74
2023/08/09 12:38:09;;;;;;;2.80;1.40;;;;;;;;;;103592;1295;545603;-78
2023/08/09 12:41:47;;;;;;;5.50;1.90;;;;;;;;;;103774;1291;544882;-74
2023/08/09 12:45:25;;;;;;;3.80;1.50;;;;;;;;;;103764;1292;546112;-74
2023/08/09 12:49:04;;;;;;;4.40;1.40;;;;;;;;;;103851;1288;545042;-73
2023/08/09 12:52:43;;;;;;;3.10;1.50;;;;;;;;;;103694;1289;545297;-75
2023/08/09 12:56:21;;;;;;;9.30;2.20;;;;;;;;;;103853;1289;544854;-74
2023/08/09 13:00:04;;;;;;;6.00;2.20;;;;;;;;;;103813;1291;544879;-74
2023/08/09 13:03:41;;;;;;;6.10;2.10;;;;;;;;;;103798;1296;545133;-75
2023/08/09 13:07:14;;;;;;;6.30;2.00;;;;;;;;;;103769;1290;545934;-74
2023/08/09 13:10:57;;;;;;;6.70;1.70;;;;;;;;;;103760;1289;544754;-74
2023/08/09 13:14:30;;;;;;;4.10;1.50;;;;;;;;;;103776;1292;544776;-73
2023/08/09 13:18:12;;;;;;;7.80;2.30;;;;;;;;;;103824;1295;544748;-73
2023/08/09 13:21:46;;;;;;;3.10;1.20;;;;;;;;;;103869;1290;544597;-73
2023/08/09 13:25:28;;;;;;;4.90;1.90;;;;;;;;;;104276;1292;544978;-74
2023/08/09 13:29:05;;;;;;;6.00;2.10;;;;;;;;;;103736;1292;545108;-74
2023/08/09 13:32:43;;;;;;;5.20;2.00;;;;;;;;;;103808;1289;545270;-74
2023/08/09 13:36:20;;;;;;;8.20;1.70;;;;;;;;;;103896;1290;544712;-74
2023/08/09 13:39:57;;;;;;;4.70;1.80;;;;;;;;;;103760;1288;545384;-73
2023/08/09 13:43:36;;;;;;;7.50;2.80;;;;;;;;;;103687;1293;544736;-73
2023/08/09 13:47:12;;;;;;;3.30;1.30;;;;;;;;;;103754;1290;544786;-74
2023/08/09 13:50:50;;;;;;;5.30;1.60;;;;;;;;;;103746;1291;544932;-73
2023/08/09 13:54:27;;;;;;;8.10;1.80;;;;;;;;;;103684;1290;545056;-73
2023/08/09 13:58:05;;;;;;;6.70;1.40;;;;;;;;;;103837;1290;545929;-77
2023/08/09 14:01:39;;;;;;;4.70;1.60;;;;;;;;;;103725;1290;544854;-74
2023/08/09 14:05:22;;;;;;;9.60;1.80;;;;;;;;;;103694;1291;544839;-73
2023/08/09 14:08:58;;;;;;;3.80;1.50;;;;;;;;;;104263;1292;545222;-73
2023/08/09 14:12:36;;;;;;;8.30;1.70;;;;;;;;;;103723;1291;544944;-74
2023/08/09 14:16:13;;;;;;;4.70;1.40;;;;;;;;;;103801;1289;545050;-73
2023/08/09 14:19:47;;;;;;;4.50;1.50;;;;;;;;;;103782;1292;545257;-77
2023/08/09 14:23:25;;;;;;;5.70;1.40;;;;;;;;;;103817;1291;545515;-74
2023/08/09 14:27:07;;;;;;;5.80;1.50;;;;;;;;;;103721;1289;544808;-74
2023/08/09 14:30:45;;;;;;;5.00;1.50;;;;;;;;;;103836;1291;545603;-74
2023/08/09 14:34:18;;;;;;;10.60;2.60;;;;;;;;;;103751;1292;544989;-76
2023/08/09 14:37:56;;;;;;;9.20;1.70;;;;;;;;;;103809;1289;544836;-73
2023/08/09 14:41:39;;;;;;;4.30;1.50;;;;;;;;;;103724;1294;546483;-73
2023/08/09 14:45:17;;;;;;;5.50;1.40;;;;;;;;;;103720;1292;545658;-73
2023/08/09 14:48:54;;;;;;;8.20;1.90;;;;;;;;;;103710;1291;545057;-73
2023/08/09 14:52:31;;;;;;;7.00;1.80;;;;;;;;;;103812;1290;545364;-73
2023/08/09 14:56:08;;;;;;;6.30;1.60;;;;;;;;;;103815;1292;545158;-77
2023/08/09 14:59:43;;;;;;;4.70;1.50;;;;;;;;;;104326;1286;545313;-73
2023/08/09 15:03:21;;;;;;;4.60;1.60;;;;;;;;;;104097;1286;544884;-72
2023/08/09 15:07:01;;;;;;;5.30;1.50;;;;;;;;;;103757;1290;545328;-73
2023/08/09 15:10:43;;;;;;;4.00;1.50;;;;;;;;;;103779;1288;547349;-73
2023/08/09 15:14:21;;;;;;;5.00;1.90;;;;;;;;;;104018;1289;544793;-75
2023/08/09 15:17:58;;;;;;;3.90;1.60;;;;;;;;;;103630;1295;545673;-73
2023/08/09 15:21:32;;;;;;;5.20;2.10;;;;;;;;;;104089;1289;544977;-73
2023/08/09 15:25:20;;;;;;;2.70;1.40;;;;;;;;;;103742;1289;545539;-76
2023/08/09 15:28:58;;;;;;;4.40;1.90;;;;;;;;;;103888;1290;544960;-75
2023/08/09 15:32:36;;;;;;;4.50;1.80;;;;;;;;;;103932;1289;545001;-73
2023/08/09 15:36:14;;;;;;;3.90;1.70;;;;;;;;;;103740;1292;545882;-73
2023/08/09 15:39:56;;;;;;;3.40;1.40;;;;;;;;;;103583;1291;544769;-73
2023/08/09 15:43:31;;;;;;;3.30;1.40;;;;;;;;;;103933;1289;545037;-73
2023/08/09 15:47:16;;;;;;;2.30;1.20;;;;;;;;;;103738;1292;545011;-78
2023/08/09 15:50:46;;;;;;;3.80;1.50;;;;;;;;;;103907;1292;545181;-74
2023/08/09 15:54:24;;;;;;;2.70;1.30;;;;;;;;;;103818;1289;546168;-73
2023/08/09 15:58:05;;;;;;;3.50;1.40;;;;;;;;;;103852;1289;544722;-73
2023/08/09 16:01:45;;;;;;;3.80;1.30;;;;;;;;;;103630;1297;545394;-74
2023/08/09 16:05:21;;;;;;;3.30;1.50;;;;;;;;;;103727;1289;546086;-73
2023/08/09 16:08:59;;;;;;;3.20;1.20;;;;;;;;;;103752;1290;545529;-78
2023/08/09 16:12:37;;;;;;;4.10;1.50;;;;;;;;;;103874;1289;544706;-79
2023/08/09 16:16:15;;;;;;;3.60;1.50;;;;;;;;;;103767;1289;545007;-78
2023/08/09 16:19:54;;;;;;;2.50;1.00;;;;;;;;;;103759;1291;544979;-75
2023/08/09 16:23:32;;;;;;;4.60;1.40;;;;;;;;;;103835;1292;544999;-74
2023/08/09 16:27:14;;;;;;;2.50;1.10;;;;;;;;;;103761;1290;545004;-73
2023/08/09 16:30:48;;;;;;;3.50;1.60;;;;;;;;;;103772;1292;545036;-74
2023/08/09 16:34:26;;;;;;;2.50;1.30;;;;;;;;;;103754;1292;546548;-73
2023/08/09 16:38:10;;;;;;;4.00;1.80;;;;;;;;;;103624;1292;548296;-74
2023/08/09 16:41:41;;;;;;;4.10;1.30;;;;;;;;;;103902;1289;545373;-73
2023/08/09 16:45:20;;;;;;;2.60;1.40;;;;;;;;;;103856;1292;544783;-73
2023/08/09 16:48:57;;;;;;;4.10;1.30;;;;;;;;;;103862;1291;545112;-74
2023/08/09 16:52:36;;;;;;;3.90;1.60;;;;;;;;;;103637;1291;545248;-73
2023/08/09 16:56:14;;;;;;;5.10;1.60;;;;;;;;;;103744;1292;545274;-73
2023/08/09 16:59:52;;;;;;;3.30;1.60;;;;;;;;;;103752;1292;545037;-72
2023/08/09 17:03:30;;;;;;;6.10;1.90;;;;;;;;;;103745;1292;545000;-77
2023/08/09 17:07:10;;;;;;;4.10;1.50;;;;;;;;;;103853;1291;544931;-73
2023/08/09 17:10:52;;;;;;;4.60;1.40;;;;;;;;;;104033;1291;545653;-73
2023/08/09 17:14:30;;;;;;;5.40;1.40;;;;;;;;;;103875;1289;545938;-73
2023/08/09 17:18:07;;;;;;;4.80;1.70;;;;;;;;;;104484;1282;544833;-77